Time;durP1;ratioP1;P1;durP2;ratioP2;P2;SDS_P1;SDS_P2;PMS_P1;PMS_P2;Temp;Humidity;BMP_temperature;BMP_pressure;BME280_temperature;BME280_humidity;BME280_pressure;Samples;Min_cycle;Max_cycle;Signal;HPM_P1;HPM_P2
2021/01/22 00:01:59;;;;;;;1.13;1.10;;;11.00;71.60;;;;;;5037652;28;20224;-87
2021/01/22 00:04:26;;;;;;;1.83;1.67;;;11.10;70.30;;;;;;5062238;28;20208;-87
2021/01/22 00:06:52;;;;;;;1.40;1.30;;;11.10;71.00;;;;;;5063129;28;20185;-87
2021/01/22 00:09:18;;;;;;;3.33;1.13;;;11.10;71.70;;;;;;5063661;28;20176;-88
2021/01/22 00:11:44;;;;;;;1.77;1.00;;;11.10;71.00;;;;;;5063798;28;20184;-87
2021/01/22 00:14:09;;;;;;;1.07;1.07;;;11.10;71.90;;;;;;5028515;28;20590;-87
2021/01/22 00:16:35;;;;;;;1.17;1.03;;;11.10;70.80;;;;;;5057797;28;20242;-88
2021/01/22 00:19:00;;;;;;;0.90;0.90;;;11.10;72.10;;;;;;5043494;28;20219;-86
2021/01/22 00:21:26;;;;;;;1.20;1.20;;;11.00;74.20;;;;;;5043405;28;20247;-85
2021/01/22 00:23:52;;;;;;;1.10;1.10;;;11.00;74.30;;;;;;5025612;28;20257;-86
2021/01/22 00:26:17;;;;;;;1.10;1.10;;;10.80;77.00;;;;;;5042831;28;20182;-87
2021/01/22 00:28:43;;;;;;;0.93;0.93;;;10.70;78.50;;;;;;5025196;28;20181;-87
2021/01/22 00:31:09;;;;;;;1.10;1.07;;;10.50;80.50;;;;;;5042854;28;20188;-87
2021/01/22 00:33:34;;;;;;;1.20;1.20;;;10.40;82.00;;;;;;5057493;28;20232;-87
2021/01/22 00:36:00;;;;;;;2.10;1.00;;;10.20;85.70;;;;;;5063987;28;20199;-87
2021/01/22 00:38:26;;;;;;;1.60;1.30;;;10.00;87.30;;;;;;5047177;28;20253;-87
2021/01/22 00:40:51;;;;;;;1.30;1.20;;;9.90;88.80;;;;;;5064316;28;20238;-87
2021/01/22 00:43:17;;;;;;;2.67;1.20;;;9.70;92.10;;;;;;5045879;28;20639;-87
2021/01/22 00:45:43;;;;;;;1.37;1.27;;;9.50;93.00;;;;;;5046464;28;20184;-87
2021/01/22 00:48:09;;;;;;;2.40;1.50;;;9.30;93.30;;;;;;5063402;28;20261;-87
2021/01/22 00:50:35;;;;;;;1.30;1.20;;;9.30;92.90;;;;;;5064706;28;20654;-86
2021/01/22 00:53:01;;;;;;;2.70;1.40;;;9.30;92.00;;;;;;5047412;28;20223;-86
2021/01/22 00:55:27;;;;;;;1.43;1.30;;;9.20;92.60;;;;;;5066336;28;20374;-86
2021/01/22 00:57:52;;;;;;;1.30;1.30;;;9.30;93.50;;;;;;5064283;28;20703;-86
2021/01/22 01:00:19;;;;;;;1.20;1.20;;;9.30;92.20;;;;;;5067480;28;20182;-86
2021/01/22 01:02:44;;;;;;;2.30;1.83;;;9.40;91.80;;;;;;5068986;28;20295;-87
2021/01/22 01:05:10;;;;;;;1.73;1.30;;;9.40;91.20;;;;;;5047324;28;20765;-87
2021/01/22 01:07:36;;;;;;;1.60;1.50;;;9.50;90.80;;;;;;5046722;28;20192;-86
2021/01/22 01:10:04;;;;;;;1.50;1.40;;;9.60;89.70;;;;;;5045673;28;20200;-87
2021/01/22 01:12:30;;;;;;;1.70;1.47;;;9.60;89.10;;;;;;5046358;28;20180;-86
2021/01/22 01:14:56;;;;;;;1.37;1.27;;;9.70;87.90;;;;;;5063297;28;20319;-87
2021/01/22 01:17:21;;;;;;;1.83;1.50;;;9.80;87.80;;;;;;5064248;28;20207;-86
2021/01/22 01:19:47;;;;;;;4.27;1.50;;;9.80;86.10;;;;;;5046552;28;20181;-86
2021/01/22 01:22:13;;;;;;;1.43;1.40;;;9.90;85.40;;;;;;5064919;28;20226;-85
2021/01/22 01:24:39;;;;;;;1.80;1.40;;;10.20;83.00;;;;;;5065371;28;20208;-85
2021/01/22 01:27:04;;;;;;;1.60;1.50;;;10.30;83.30;;;;;;5047713;28;20180;-87
2021/01/22 01:29:30;;;;;;;1.63;1.53;;;10.40;81.80;;;;;;5065693;28;20259;-86
2021/01/22 01:31:56;;;;;;;1.77;1.60;;;10.40;80.60;;;;;;5065046;28;20185;-85
2021/01/22 01:34:21;;;;;;;1.67;1.37;;;10.40;80.60;;;;;;5047446;28;20207;-85
2021/01/22 01:36:47;;;;;;;1.20;1.20;;;10.50;78.80;;;;;;5064119;28;20267;-86
2021/01/22 01:39:13;;;;;;;1.60;1.50;;;10.70;77.20;;;;;;5065639;28;20191;-86
2021/01/22 01:41:39;;;;;;;1.97;1.63;;;10.80;77.10;;;;;;5065202;28;20204;-87
2021/01/22 01:44:04;;;;;;;1.63;1.40;;;10.80;75.30;;;;;;5048611;28;20211;-88
2021/01/22 01:46:30;;;;;;;1.67;1.57;;;11.00;74.40;;;;;;5066019;28;20177;-86
2021/01/22 01:48:57;;;;;;;2.10;1.90;;;11.00;75.40;;;;;;5047904;28;20528;-86
2021/01/22 01:51:23;;;;;;;2.27;1.77;;;11.00;73.20;;;;;;5065234;28;20180;-86
2021/01/22 01:53:48;;;;;;;1.83;1.50;;;11.00;74.70;;;;;;5048060;28;20209;-86
2021/01/22 01:56:14;;;;;;;1.60;1.50;;;11.00;74.20;;;;;;5065741;28;20187;-86
2021/01/22 01:58:40;;;;;;;2.43;1.93;;;11.00;72.60;;;;;;5065477;28;20187;-85
2021/01/22 02:01:09;;;;;;;1.70;1.60;;;11.00;73.10;;;;;;5065455;28;20207;-86
2021/01/22 02:03:34;;;;;;;4.43;1.67;;;11.20;71.70;;;;;;5031671;28;20200;-86
2021/01/22 02:06:00;;;;;;;3.33;1.70;;;11.10;72.60;;;;;;5047599;28;20185;-87
2021/01/22 02:08:26;;;;;;;2.90;1.77;;;11.10;71.00;;;;;;5035174;28;20220;-87
2021/01/22 02:10:53;;;;;;;3.10;1.90;;;11.20;70.30;;;;;;5040889;28;20177;-87
2021/01/22 02:13:20;;;;;;;2.30;1.80;;;11.30;70.70;;;;;;5042367;28;20529;-88
2021/01/22 02:15:46;;;;;;;3.77;1.80;;;11.30;69.70;;;;;;5042697;28;20532;-87
2021/01/22 02:18:13;;;;;;;4.47;2.27;;;11.30;69.40;;;;;;5043553;28;20192;-87
2021/01/22 02:20:44;;;;;;;3.53;1.93;;;11.40;68.60;;;;;;5042084;28;20173;-87
2021/01/22 02:23:13;;;;;;;4.40;2.40;;;11.40;66.90;;;;;;5045623;28;20219;-86
2021/01/22 02:25:40;;;;;;;2.90;1.90;;;11.50;67.20;;;;;;5068532;28;20184;-87
2021/01/22 02:28:11;;;;;;;2.00;1.50;;;11.40;66.70;;;;;;5063593;28;20570;-88
2021/01/22 02:30:39;;;;;;;4.37;1.70;;;11.50;65.40;;;;;;5063231;28;20169;-86
2021/01/22 02:33:05;;;;;;;5.00;2.00;;;11.50;66.80;;;;;;5063231;28;20218;-86
2021/01/22 02:35:33;;;;;;;1.97;1.80;;;11.50;66.40;;;;;;5060758;28;20180;-87
2021/01/22 02:38:01;;;;;;;2.80;1.80;;;11.40;66.30;;;;;;5059954;28;20191;-88
2021/01/22 02:40:30;;;;;;;2.77;2.10;;;11.50;65.50;;;;;;5046078;28;20652;-86
2021/01/22 02:42:55;;;;;;;2.83;1.90;;;11.50;65.50;;;;;;5039888;28;20224;-87
2021/01/22 02:45:22;;;;;;;4.17;1.83;;;11.60;65.60;;;;;;5039880;28;20185;-86
2021/01/22 02:47:51;;;;;;;3.87;1.70;;;11.50;65.70;;;;;;5039522;28;20177;-87
2021/01/22 02:50:17;;;;;;;4.70;2.20;;;11.60;64.30;;;;;;5039532;28;20203;-85
2021/01/22 02:52:44;;;;;;;6.00;2.00;;;11.50;65.00;;;;;;5039283;28;20181;-87
2021/01/22 02:55:12;;;;;;;4.23;2.10;;;11.60;64.00;;;;;;5040139;28;20220;-87
2021/01/22 02:57:56;;;;;;;2.50;1.73;;;11.60;64.30;;;;;;5040406;28;20181;-87
2021/01/22 03:00:27;;;;;;;2.97;1.73;;;11.60;64.20;;;;;;5040147;28;20179;-87
2021/01/22 03:03:12;;;;;;;5.23;1.80;;;11.50;65.10;;;;;;5039653;28;20586;-87
2021/01/22 03:05:38;;;;;;;4.77;1.97;;;11.50;64.50;;;;;;5059803;28;20168;-87
2021/01/22 03:08:13;;;;;;;4.67;1.97;;;11.50;64.00;;;;;;5059317;28;20180;-87
2021/01/22 03:10:40;;;;;;;4.07;1.97;;;11.50;64.60;;;;;;5057519;28;20188;-86
2021/01/22 03:13:07;;;;;;;4.00;1.80;;;11.50;64.50;;;;;;5039095;28;20212;-85
2021/01/22 03:15:34;;;;;;;5.60;2.57;;;11.40;64.10;;;;;;5039415;28;20193;-87
2021/01/22 03:18:10;;;;;;;5.67;2.00;;;11.50;64.80;;;;;;5021737;28;20548;-88
2021/01/22 03:20:36;;;;;;;2.27;1.90;;;11.40;64.60;;;;;;5039608;28;20173;-87
2021/01/22 03:23:03;;;;;;;2.87;2.20;;;11.40;65.10;;;;;;5038683;28;20557;-86
2021/01/22 03:25:30;;;;;;;4.30;1.87;;;11.40;64.70;;;;;;5022321;28;20212;-87
2021/01/22 03:27:55;;;;;;;5.80;1.97;;;11.30;65.00;;;;;;5019796;28;20285;-85
2021/01/22 03:30:22;;;;;;;5.10;2.07;;;11.40;65.00;;;;;;5020199;28;20224;-86
2021/01/22 03:32:47;;;;;;;4.13;1.70;;;11.30;65.10;;;;;;5019630;28;20779;-86
2021/01/22 03:35:13;;;;;;;3.73;2.00;;;11.40;65.60;;;;;;5019576;28;20221;-86
2021/01/22 03:37:39;;;;;;;2.47;2.00;;;11.30;65.60;;;;;;5003537;28;20209;-87
2021/01/22 03:40:05;;;;;;;3.73;2.20;;;11.30;65.80;;;;;;5006407;28;20182;-86
2021/01/22 03:42:31;;;;;;;3.17;1.90;;;11.30;65.90;;;;;;5009222;28;20220;-87
2021/01/22 03:44:56;;;;;;;4.07;2.00;;;11.30;65.10;;;;;;5023730;28;20206;-87
2021/01/22 03:47:22;;;;;;;2.97;1.77;;;11.40;65.40;;;;;;5026279;28;20273;-86
2021/01/22 03:49:48;;;;;;;3.80;2.10;;;11.30;65.90;;;;;;5023296;28;20192;-87
2021/01/22 03:52:13;;;;;;;2.97;2.00;;;11.40;65.50;;;;;;5039329;28;20189;-87
2021/01/22 03:54:39;;;;;;;2.13;1.57;;;11.20;66.40;;;;;;5042431;28;20217;-87
2021/01/22 03:57:05;;;;;;;3.53;1.80;;;11.30;66.20;;;;;;5042512;28;20211;-86
2021/01/22 03:59:30;;;;;;;4.20;1.70;;;11.30;65.80;;;;;;5043988;28;20204;-86
2021/01/22 04:01:56;;;;;;;2.87;1.73;;;11.30;65.70;;;;;;5042970;28;20213;-85
2021/01/22 04:04:22;;;;;;;3.90;1.90;;;11.30;65.50;;;;;;5055853;28;20212;-86
2021/01/22 04:06:47;;;;;;;1.80;1.50;;;11.30;66.00;;;;;;5062800;28;20181;-86
2021/01/22 04:09:14;;;;;;;4.10;1.80;;;11.30;66.00;;;;;;5044602;28;20184;-85
2021/01/22 04:11:39;;;;;;;4.33;2.07;;;11.20;67.00;;;;;;5062575;28;20188;-86
2021/01/22 04:14:05;;;;;;;3.10;1.90;;;11.30;66.50;;;;;;5062164;28;20721;-85
2021/01/22 04:16:30;;;;;;;3.20;1.80;;;11.30;66.00;;;;;;5061737;28;20188;-86
2021/01/22 04:18:56;;;;;;;3.70;2.40;;;11.30;65.30;;;;;;5044352;28;20184;-87
2021/01/22 04:21:22;;;;;;;2.87;1.90;;;11.20;66.20;;;;;;5061673;28;20200;-87
2021/01/22 04:23:47;;;;;;;2.00;1.60;;;11.20;66.20;;;;;;5062114;28;20260;-86
2021/01/22 04:26:13;;;;;;;2.33;1.90;;;11.20;66.40;;;;;;5044174;28;20180;-86
2021/01/22 04:28:39;;;;;;;3.33;1.70;;;11.20;67.20;;;;;;5044566;28;20188;-87
2021/01/22 04:31:04;;;;;;;3.43;2.10;;;11.10;66.50;;;;;;5062374;28;20261;-88
2021/01/22 04:33:30;;;;;;;2.73;1.80;;;11.10;66.90;;;;;;5046453;28;20729;-86
2021/01/22 04:35:56;;;;;;;3.00;1.87;;;11.10;67.70;;;;;;5024330;28;20177;-87
2021/01/22 04:38:21;;;;;;;3.47;1.80;;;11.20;65.90;;;;;;5041828;28;20193;-86
2021/01/22 04:40:49;;;;;;;2.43;1.70;;;11.20;66.70;;;;;;5013538;28;20203;-87
2021/01/22 04:43:15;;;;;;;3.47;1.63;;;11.20;66.20;;;;;;5061584;28;20204;-87
2021/01/22 04:45:41;;;;;;;2.97;1.80;;;11.20;66.50;;;;;;5061350;28;20168;-87
2021/01/22 04:48:08;;;;;;;1.63;1.53;;;11.20;66.40;;;;;;5055815;28;20177;-88
2021/01/22 04:50:38;;;;;;;2.87;1.83;;;11.20;66.00;;;;;;5041298;28;20230;-87
2021/01/22 04:53:08;;;;;;;2.73;1.50;;;11.20;66.90;;;;;;5041470;28;20217;-87
2021/01/22 04:55:38;;;;;;;3.47;2.03;;;11.20;66.40;;;;;;5041738;28;20176;-86
2021/01/22 04:58:07;;;;;;;3.67;2.07;;;11.30;65.90;;;;;;5051356;28;20191;-86
2021/01/22 05:00:33;;;;;;;4.13;1.80;;;11.30;66.50;;;;;;5041102;28;20268;-87
2021/01/22 05:02:59;;;;;;;4.57;1.63;;;11.20;66.60;;;;;;5041370;28;20235;-87
2021/01/22 05:05:25;;;;;;;3.00;1.80;;;11.30;65.20;;;;;;5023312;28;20231;-86
2021/01/22 05:07:50;;;;;;;2.90;2.10;;;11.30;65.00;;;;;;5041435;28;20242;-87
2021/01/22 05:10:16;;;;;;;4.23;2.03;;;11.30;64.90;;;;;;5047359;28;20181;-85
2021/01/22 05:12:42;;;;;;;1.40;1.30;;;11.40;64.70;;;;;;5026344;28;20196;-87
2021/01/22 05:15:12;;;;;;;1.80;1.40;;;11.40;64.40;;;;;;5046193;28;20207;-87
2021/01/22 05:17:51;;;;;;;2.80;1.53;;;11.50;64.10;;;;;;5041386;28;20184;-86
2021/01/22 05:20:29;;;;;;;3.03;1.80;;;11.40;64.70;;;;;;5042027;28;20200;-87
2021/01/22 05:22:56;;;;;;;1.83;1.50;;;11.40;65.90;;;;;;5040761;28;20219;-87
2021/01/22 05:25:22;;;;;;;3.03;1.50;;;11.30;67.40;;;;;;5041065;28;20173;-86
2021/01/22 05:27:50;;;;;;;2.33;1.50;;;11.20;68.30;;;;;;5041397;28;20181;-87
2021/01/22 05:30:18;;;;;;;3.10;1.77;;;11.20;69.60;;;;;;5036022;28;20181;-86
2021/01/22 05:32:44;;;;;;;2.30;1.50;;;11.20;69.40;;;;;;5060614;28;20179;-86
2021/01/22 05:35:10;;;;;;;2.03;1.60;;;11.10;69.30;;;;;;5047989;28;20271;-87
2021/01/22 05:37:50;;;;;;;2.33;1.70;;;11.20;68.40;;;;;;5052197;28;20180;-86
2021/01/22 05:40:17;;;;;;;3.93;1.57;;;11.30;66.90;;;;;;5020937;28;20252;-87
2021/01/22 05:42:46;;;;;;;2.90;1.77;;;11.20;67.40;;;;;;5028439;28;20200;-87
2021/01/22 05:45:16;;;;;;;2.90;1.70;;;11.30;67.70;;;;;;5040688;28;20176;-86
2021/01/22 05:47:42;;;;;;;2.70;1.67;;;11.20;68.30;;;;;;5042269;28;20189;-87
2021/01/22 05:50:08;;;;;;;1.60;1.40;;;11.20;68.80;;;;;;5039527;28;20187;-86
2021/01/22 05:52:34;;;;;;;2.17;1.60;;;11.30;68.60;;;;;;5042522;28;20185;-86
2021/01/22 05:55:18;;;;;;;1.83;1.50;;;11.30;67.90;;;;;;5038865;28;20623;-86
2021/01/22 05:57:44;;;;;;;2.80;1.40;;;11.30;69.50;;;;;;5039774;28;20196;-88
2021/01/22 06:00:14;;;;;;;3.10;2.27;;;11.30;68.50;;;;;;5037822;28;20192;-88
2021/01/22 06:02:40;;;;;;;2.70;1.60;;;11.20;69.30;;;;;;5037925;28;20288;-88
2021/01/22 06:05:13;;;;;;;3.50;1.80;;;11.30;69.50;;;;;;5038631;28;20220;-87
2021/01/22 06:07:41;;;;;;;2.60;1.47;;;11.10;70.30;;;;;;5019541;28;20166;-88
2021/01/22 06:10:14;;;;;;;1.77;1.63;;;11.10;69.70;;;;;;5019651;28;20649;-87
2021/01/22 06:12:46;;;;;;;3.17;1.50;;;11.10;70.60;;;;;;5021961;28;20188;-89
2021/01/22 06:15:13;;;;;;;6.70;1.87;;;11.20;69.60;;;;;;5046987;28;20925;-88
2021/01/22 06:17:45;;;;;;;3.10;1.57;;;11.10;68.90;;;;;;5039479;28;20189;-88
2021/01/22 06:20:17;;;;;;;3.47;1.80;;;11.10;70.70;;;;;;5055049;28;20601;-88
2021/01/22 06:23:09;;;;;;;3.53;1.60;;;11.10;69.40;;;;;;5058485;28;20805;-87
2021/01/22 06:25:35;;;;;;;3.20;1.77;;;11.10;68.70;;;;;;5058585;28;20180;-87
2021/01/22 06:28:03;;;;;;;5.30;2.10;;;11.20;67.90;;;;;;5058008;28;20181;-88
2021/01/22 06:30:33;;;;;;;4.33;1.93;;;11.10;68.70;;;;;;5053122;28;20233;-88
2021/01/22 06:33:00;;;;;;;2.63;1.80;;;11.10;68.10;;;;;;5044008;28;20200;-88
2021/01/22 06:35:34;;;;;;;2.70;2.03;;;11.20;66.90;;;;;;5043278;28;20200;-89
2021/01/22 06:38:01;;;;;;;4.17;2.00;;;11.30;67.10;;;;;;5019009;28;20201;-88
2021/01/22 06:40:27;;;;;;;2.87;1.53;;;11.30;67.00;;;;;;5021147;28;20231;-89
2021/01/22 06:42:54;;;;;;;4.03;1.60;;;11.40;66.40;;;;;;5038345;28;20209;-88
2021/01/22 06:45:20;;;;;;;2.00;1.57;;;11.40;66.90;;;;;;5044626;28;20227;-88
2021/01/22 06:47:59;;;;;;;3.80;1.97;;;11.40;66.80;;;;;;5038089;28;20177;-88
2021/01/22 06:50:25;;;;;;;4.47;2.00;;;11.40;66.80;;;;;;5038495;28;20595;-89
2021/01/22 06:53:08;;;;;;;4.67;1.83;;;11.50;65.50;;;;;;5038509;28;20847;-89
2021/01/22 06:56:00;;;;;;;4.10;2.07;;;11.60;65.10;;;;;;5038461;28;20165;-89
2021/01/22 06:58:27;;;;;;;4.40;2.23;;;11.60;64.30;;;;;;5031276;28;20692;-87
2021/01/22 07:00:57;;;;;;;4.47;2.23;;;11.50;66.00;;;;;;5014149;28;20184;-88
2021/01/22 07:03:38;;;;;;;3.13;2.07;;;11.50;65.30;;;;;;5012658;28;20205;-87
2021/01/22 07:06:04;;;;;;;5.07;2.13;;;11.50;65.50;;;;;;5038498;28;20227;-88
2021/01/22 07:08:56;;;;;;;4.40;2.10;;;11.60;64.60;;;;;;5037662;28;20181;-87
2021/01/22 07:11:23;;;;;;;3.27;2.20;;;11.50;63.50;;;;;;5035614;28;20678;-88
2021/01/22 07:13:50;;;;;;;3.30;2.10;;;11.60;63.60;;;;;;5045018;28;20892;-88
2021/01/22 07:16:16;;;;;;;4.17;2.50;;;11.60;62.20;;;;;;5045138;28;20537;-88
2021/01/22 07:18:44;;;;;;;3.57;2.17;;;11.70;62.00;;;;;;5037913;28;20271;-89
2021/01/22 07:21:38;;;;;;;3.63;2.03;;;11.70;62.50;;;;;;5042732;28;20303;-88
2021/01/22 07:24:08;;;;;;;3.97;1.77;;;11.70;62.30;;;;;;5043143;28;20224;-88
2021/01/22 07:26:40;;;;;;;3.60;2.00;;;11.80;60.70;;;;;;5042480;28;20208;-89
2021/01/22 07:29:16;;;;;;;4.17;2.03;;;11.80;61.90;;;;;;5040610;28;20260;-88
2021/01/22 07:31:56;;;;;;;4.90;2.07;;;11.80;60.70;;;;;;5041055;28;20533;-89
2021/01/22 07:34:37;;;;;;;4.87;2.47;;;11.90;60.70;;;;;;5040894;28;20247;-88
2021/01/22 07:37:21;;;;;;;4.60;2.33;;;11.90;61.10;;;;;;5038813;28;20199;-88
2021/01/22 07:39:49;;;;;;;3.50;2.20;;;11.90;60.10;;;;;;5027275;28;20193;-88
2021/01/22 07:42:20;;;;;;;3.00;2.20;;;11.90;60.00;;;;;;5041347;28;20778;-88
2021/01/22 07:44:47;;;;;;;3.53;1.80;;;11.80;61.20;;;;;;5041052;28;20212;-88
2021/01/22 07:47:23;;;;;;;4.07;2.10;;;11.90;59.60;;;;;;5041576;28;20188;-88
2021/01/22 07:50:06;;;;;;;5.50;2.53;;;12.00;59.80;;;;;;5042435;28;20196;-89
2021/01/22 07:52:39;;;;;;;4.10;2.33;;;11.90;59.60;;;;;;5039234;28;20181;-88
2021/01/22 07:55:12;;;;;;;3.97;2.20;;;12.00;60.10;;;;;;5029770;28;20702;-88
2021/01/22 07:57:37;;;;;;;6.10;2.30;;;12.00;58.90;;;;;;5047158;28;20248;-89
2021/01/22 08:00:12;;;;;;;4.43;2.33;;;12.10;58.20;;;;;;5030104;28;20220;-88
2021/01/22 08:02:38;;;;;;;3.63;2.17;;;12.20;58.30;;;;;;5028622;28;20211;-88
2021/01/22 08:05:09;;;;;;;3.50;2.20;;;12.10;58.80;;;;;;5042285;28;20220;-87
2021/01/22 08:07:38;;;;;;;3.83;2.40;;;12.10;58.70;;;;;;5024246;28;20774;-87
2021/01/22 08:10:10;;;;;;;6.60;2.13;;;12.20;57.80;;;;;;5031391;28;20239;-88
2021/01/22 08:12:37;;;;;;;3.50;2.20;;;12.10;58.10;;;;;;5042080;28;20193;-89
2021/01/22 08:15:18;;;;;;;5.80;2.83;;;12.10;58.20;;;;;;5043063;28;20228;-89
2021/01/22 08:17:45;;;;;;;6.30;2.17;;;12.10;58.30;;;;;;5044251;28;20215;-88
2021/01/22 08:20:12;;;;;;;2.53;2.20;;;12.10;58.30;;;;;;5044061;28;20280;-89
2021/01/22 08:22:37;;;;;;;5.03;2.30;;;12.10;57.90;;;;;;5032830;28;20223;-89
2021/01/22 08:25:04;;;;;;;4.70;2.00;;;12.20;58.00;;;;;;5030603;28;20213;-88
2021/01/22 08:27:30;;;;;;;4.67;2.37;;;12.20;58.70;;;;;;5039826;28;20193;-89
2021/01/22 08:29:56;;;;;;;4.03;2.10;;;12.20;58.00;;;;;;5038714;28;20200;-89
2021/01/22 08:32:22;;;;;;;6.53;2.93;;;12.20;57.50;;;;;;5038064;28;20200;-88
2021/01/22 08:34:48;;;;;;;5.80;2.37;;;12.20;58.50;;;;;;5037385;28;20299;-89
2021/01/22 08:37:15;;;;;;;3.07;1.90;;;12.30;57.90;;;;;;5037267;28;20200;-89
2021/01/22 08:39:55;;;;;;;4.87;2.20;;;12.30;58.00;;;;;;5037548;28;20191;-89
2021/01/22 08:42:22;;;;;;;5.60;2.10;;;12.30;58.30;;;;;;5012810;28;20216;-87
2021/01/22 08:45:03;;;;;;;3.30;1.90;;;12.30;58.10;;;;;;5039435;28;20215;-89
2021/01/22 08:47:30;;;;;;;3.50;2.17;;;12.30;58.50;;;;;;5030660;28;20232;-89
2021/01/22 08:50:04;;;;;;;5.20;2.50;;;12.30;58.60;;;;;;5040100;28;20248;-88
2021/01/22 08:52:30;;;;;;;3.63;2.20;;;12.40;58.80;;;;;;5028399;28;20197;-87
2021/01/22 08:54:58;;;;;;;5.77;2.53;;;12.30;59.60;;;;;;5027189;28;20567;-88
2021/01/22 08:57:28;;;;;;;6.00;2.37;;;12.30;59.60;;;;;;5039550;28;20185;-87
2021/01/22 08:59:59;;;;;;;6.60;2.50;;;12.30;59.50;;;;;;5038399;28;20291;-88
2021/01/22 09:02:39;;;;;;;4.93;2.30;;;12.20;61.40;;;;;;5025271;28;20223;-90
2021/01/22 09:05:18;;;;;;;3.33;1.90;;;12.20;60.90;;;;;;5007301;28;20267;-89
2021/01/22 09:07:44;;;;;;;4.07;2.43;;;12.10;61.90;;;;;;5037296;28;20268;-89
2021/01/22 09:10:26;;;;;;;6.20;2.23;;;12.10;61.60;;;;;;5013673;28;20193;-87
2021/01/22 09:12:52;;;;;;;4.90;2.50;;;12.10;61.90;;;;;;5032740;28;20200;-88
2021/01/22 09:15:19;;;;;;;4.40;2.20;;;12.10;61.20;;;;;;5042003;28;20196;-88
2021/01/22 09:17:46;;;;;;;4.80;2.00;;;12.10;62.50;;;;;;5042322;28;20212;-89
2021/01/22 09:20:17;;;;;;;5.50;2.23;;;12.10;62.20;;;;;;5045809;28;20560;-89
2021/01/22 09:22:44;;;;;;;4.27;2.10;;;12.10;62.30;;;;;;5038857;28;20227;-90
2021/01/22 09:25:14;;;;;;;3.43;2.30;;;12.20;62.50;;;;;;5040858;28;20189;-88
2021/01/22 09:27:41;;;;;;;3.27;2.23;;;12.30;61.70;;;;;;5027153;28;20699;-88
2021/01/22 09:30:15;;;;;;;2.80;2.03;;;12.40;61.80;;;;;;5039985;28;20181;-87
2021/01/22 09:32:48;;;;;;;3.60;2.10;;;12.40;61.30;;;;;;5038206;28;20192;-88
2021/01/22 09:35:15;;;;;;;3.07;2.00;;;12.40;62.40;;;;;;5038760;28;20189;-88
2021/01/22 09:37:41;;;;;;;3.27;2.40;;;12.30;61.80;;;;;;5032790;28;20648;-88
2021/01/22 09:40:08;;;;;;;4.90;1.93;;;12.30;61.50;;;;;;5039047;28;20201;-88
2021/01/22 09:42:34;;;;;;;5.33;3.63;;;12.30;62.30;;;;;;5038866;28;20216;-88
2021/01/22 09:45:00;;;;;;;4.30;1.90;;;12.30;62.60;;;;;;5035301;28;20266;-88
2021/01/22 09:47:26;;;;;;;3.47;2.10;;;12.40;61.70;;;;;;5037124;28;20652;-90
2021/01/22 09:49:52;;;;;;;4.30;2.20;;;12.30;61.20;;;;;;5019730;28;20649;-88
2021/01/22 09:52:17;;;;;;;4.77;1.90;;;12.50;60.10;;;;;;5039887;28;20189;-88
2021/01/22 09:54:45;;;;;;;2.87;1.90;;;12.50;59.70;;;;;;5038774;28;20209;-91
2021/01/22 09:57:11;;;;;;;2.70;2.00;;;12.60;59.00;;;;;;5028789;28;20185;-91
2021/01/22 09:59:37;;;;;;;3.40;1.80;;;12.60;59.70;;;;;;5030271;28;20203;-87
2021/01/22 10:02:03;;;;;;;3.70;1.90;;;12.60;60.00;;;;;;5037139;28;20236;-89
2021/01/22 10:04:34;;;;;;;4.33;1.90;;;12.50;60.90;;;;;;5038844;28;20213;-88
2021/01/22 10:07:00;;;;;;;3.57;2.00;;;12.50;62.50;;;;;;5031764;28;20665;-88
2021/01/22 10:09:26;;;;;;;3.53;2.03;;;12.50;62.80;;;;;;5037269;28;20247;-90
2021/01/22 10:11:52;;;;;;;3.40;2.10;;;12.40;63.60;;;;;;5039246;28;20186;-88
2021/01/22 10:14:18;;;;;;;6.00;2.33;;;12.40;63.00;;;;;;5047360;28;20252;-87
2021/01/22 10:16:44;;;;;;;3.57;1.80;;;12.30;64.90;;;;;;5044877;28;20275;-90
2021/01/22 10:19:09;;;;;;;1.97;1.70;;;12.20;64.60;;;;;;5047765;28;20241;-89
2021/01/22 10:21:35;;;;;;;3.03;1.90;;;12.20;66.70;;;;;;5046972;28;20205;-90
2021/01/22 10:24:01;;;;;;;3.97;2.00;;;12.10;67.30;;;;;;5048813;28;20213;-87
2021/01/22 10:26:27;;;;;;;3.00;2.23;;;12.00;68.40;;;;;;5048589;28;20180;-88
2021/01/22 10:28:53;;;;;;;2.77;1.87;;;12.00;67.10;;;;;;5045365;28;20701;-88
2021/01/22 10:31:20;;;;;;;6.73;2.23;;;11.90;68.10;;;;;;5032902;28;20200;-89
2021/01/22 10:33:47;;;;;;;4.00;2.10;;;11.90;68.10;;;;;;5026969;28;20208;-88
2021/01/22 10:36:14;;;;;;;3.67;2.03;;;12.10;65.70;;;;;;5023831;28;20188;-88
2021/01/22 10:38:40;;;;;;;2.97;1.73;;;12.20;66.10;;;;;;5026805;28;20185;-88
2021/01/22 10:41:06;;;;;;;3.60;1.90;;;12.30;64.50;;;;;;5036566;28;20290;-88
2021/01/22 10:43:31;;;;;;;2.47;2.20;;;12.40;63.80;;;;;;5018664;28;20228;-89
2021/01/22 10:45:59;;;;;;;3.67;2.00;;;12.60;64.80;;;;;;5017205;28;20179;-89
2021/01/22 10:48:25;;;;;;;2.73;1.80;;;12.60;63.60;;;;;;5026727;28;20206;-87
2021/01/22 10:50:51;;;;;;;3.43;1.93;;;12.80;61.70;;;;;;5017340;28;20191;-87
2021/01/22 10:53:20;;;;;;;4.23;2.10;;;12.80;61.20;;;;;;5017080;28;20262;-88
2021/01/22 10:55:46;;;;;;;2.93;2.10;;;12.90;61.50;;;;;;5017780;28;20229;-88
2021/01/22 10:58:12;;;;;;;4.27;2.00;;;12.90;62.10;;;;;;5018125;28;20177;-87
2021/01/22 11:00:38;;;;;;;2.43;1.90;;;12.90;61.50;;;;;;5048374;28;20691;-89
2021/01/22 11:03:04;;;;;;;3.10;1.97;;;12.90;61.20;;;;;;5030167;28;20778;-89
2021/01/22 11:05:30;;;;;;;2.17;1.80;;;12.90;60.90;;;;;;5021197;28;20191;-87
2021/01/22 11:07:56;;;;;;;2.37;2.07;;;13.10;61.00;;;;;;5019073;28;20175;-87
2021/01/22 11:10:22;;;;;;;3.70;2.13;;;13.20;60.50;;;;;;5020322;28;20178;-87
2021/01/22 11:12:49;;;;;;;1.90;1.70;;;13.30;59.90;;;;;;5018264;28;20651;-87
2021/01/22 11:15:15;;;;;;;2.57;1.90;;;13.50;59.30;;;;;;5026119;28;20186;-87
2021/01/22 11:17:41;;;;;;;3.47;2.27;;;13.50;59.20;;;;;;5036323;28;20242;-87
2021/01/22 11:20:07;;;;;;;3.23;1.90;;;13.50;58.80;;;;;;5036086;28;20178;-87
2021/01/22 11:22:34;;;;;;;2.50;1.87;;;13.40;59.60;;;;;;5018622;28;20206;-87
2021/01/22 11:24:59;;;;;;;3.83;2.37;;;13.40;59.90;;;;;;5027693;28;20256;-87
2021/01/22 11:27:26;;;;;;;1.93;1.80;;;13.30;61.10;;;;;;5020183;28;20219;-87
2021/01/22 11:29:53;;;;;;;2.80;1.90;;;13.20;60.50;;;;;;5013711;28;20182;-87
2021/01/22 11:32:19;;;;;;;5.10;2.70;;;13.10;61.20;;;;;;5038079;28;20727;-90
2021/01/22 11:34:45;;;;;;;2.93;1.80;;;12.70;62.20;;;;;;5037948;28;20218;-87
2021/01/22 11:37:11;;;;;;;2.37;1.90;;;11.60;65.00;;;;;;5027563;28;20179;-89
2021/01/22 11:39:37;;;;;;;2.63;1.60;;;10.80;68.60;;;;;;5039779;28;20180;-88
2021/01/22 11:42:10;;;;;;;1.70;1.60;;;10.30;70.20;;;;;;5039105;28;20719;-90
2021/01/22 11:44:36;;;;;;;2.20;1.63;;;9.60;71.20;;;;;;5038954;28;20201;-91
2021/01/22 11:47:03;;;;;;;1.97;1.33;;;8.90;73.80;;;;;;5042600;28;20244;-89
2021/01/22 11:49:29;;;;;;;1.60;1.50;;;8.50;76.30;;;;;;5040294;28;20181;-89
2021/01/22 11:51:55;;;;;;;1.47;1.37;;;8.00;78.10;;;;;;5039974;28;20200;-90
2021/01/22 11:54:21;;;;;;;1.50;1.40;;;7.80;78.70;;;;;;5039371;28;20376;-89
2021/01/22 11:56:47;;;;;;;1.40;1.30;;;7.50;79.90;;;;;;5037413;28;20200;-88
2021/01/22 11:59:13;;;;;;;1.80;1.27;;;7.40;80.20;;;;;;5012603;28;20193;-90
2021/01/22 12:01:38;;;;;;;5.67;5.10;;;7.30;81.00;;;;;;5038153;28;20288;-89
2021/01/22 12:04:04;;;;;;;10.60;6.17;;;7.20;81.60;;;;;;5039290;28;20340;-90
2021/01/22 12:06:30;;;;;;;3.13;2.60;;;7.30;82.60;;;;;;5042492;28;20195;-90
2021/01/22 12:08:56;;;;;;;6.63;4.80;;;7.30;82.30;;;;;;5042036;28;20181;-90
2021/01/22 12:11:22;;;;;;;1.77;1.50;;;7.10;82.70;;;;;;5039557;28;20611;-89
2021/01/22 12:13:47;;;;;;;9.00;4.80;;;7.10;82.80;;;;;;5040817;28;20224;-90
2021/01/22 12:16:13;;;;;;;16.67;8.67;;;6.90;83.20;;;;;;5027181;28;20194;-90
2021/01/22 12:18:39;;;;;;;15.07;9.27;;;6.80;83.10;;;;;;5031090;28;20192;-90
2021/01/22 12:21:06;;;;;;;8.70;5.43;;;6.70;82.80;;;;;;5048207;28;20235;-90
2021/01/22 12:23:32;;;;;;;17.27;11.03;;;6.60;83.00;;;;;;5049284;28;20212;-89
2021/01/22 12:25:58;;;;;;;4.73;3.37;;;6.60;83.40;;;;;;5031162;28;20185;-89
2021/01/22 12:28:24;;;;;;;6.60;4.70;;;6.60;82.70;;;;;;5046362;28;20329;-89
2021/01/22 12:30:49;;;;;;;3.87;3.17;;;6.70;82.80;;;;;;5050296;28;20197;-89
2021/01/22 12:33:15;;;;;;;4.47;3.53;;;6.60;83.80;;;;;;5047960;28;20209;-90
2021/01/22 12:35:41;;;;;;;3.10;2.73;;;6.50;83.60;;;;;;5018106;28;20189;-91
2021/01/22 12:38:06;;;;;;;1.70;1.60;;;6.60;83.80;;;;;;5028495;28;20207;-89
2021/01/22 12:40:32;;;;;;;1.87;1.73;;;6.50;84.10;;;;;;5017474;28;20209;-88
2021/01/22 12:42:58;;;;;;;1.73;1.63;;;6.50;84.00;;;;;;5024394;28;20217;-88
2021/01/22 12:45:26;;;;;;;1.53;1.30;;;6.60;83.30;;;;;;5036463;28;20208;-88
2021/01/22 12:47:53;;;;;;;1.40;1.30;;;6.60;82.90;;;;;;5010375;28;20284;-90
2021/01/22 12:50:19;;;;;;;4.97;1.67;;;6.50;83.40;;;;;;5025838;28;20212;-87
2021/01/22 12:52:45;;;;;;;1.40;1.30;;;6.50;83.40;;;;;;5035201;28;20185;-90